Time;durP1;ratioP1;P1;durP2;ratioP2;P2;SDS_P1;SDS_P2;PMS_P1;PMS_P2;Temp;Humidity;BMP_temperature;BMP_pressure;BME280_temperature;BME280_humidity;BME280_pressure;Samples;Min_cycle;Max_cycle;Signal;HPM_P1;HPM_P2
2023/01/26 00:01:07;;;;;;;94.45;31.70;;;;;;;;;;5077858;28;20045;-72
2023/01/26 00:03:34;;;;;;;93.28;32.58;;;;;;;;;;5082456;28;20151;-72
2023/01/26 00:06:04;;;;;;;94.80;32.40;;;;;;;;;;5079786;28;20151;-69
2023/01/26 00:08:34;;;;;;;84.10;30.80;;;;;;;;;;5064830;28;20071;-72
2023/01/26 00:11:04;;;;;;;96.90;33.15;;;;;;;;;;5061709;28;20430;-74
2023/01/26 00:13:31;;;;;;;103.68;33.67;;;;;;;;;;5084265;28;20048;-73
2023/01/26 00:15:57;;;;;;;94.50;31.52;;;;;;;;;;5071648;28;20060;-70
2023/01/26 00:18:23;;;;;;;72.38;26.15;;;;;;;;;;5081426;28;20048;-70
2023/01/26 00:21:00;;;;;;;98.65;34.40;;;;;;;;;;5082535;28;20057;-73
2023/01/26 00:23:27;;;;;;;90.78;31.15;;;;;;;;;;5083885;28;20056;-71
2023/01/26 00:25:53;;;;;;;100.75;34.55;;;;;;;;;;5072419;28;20507;-73
2023/01/26 00:28:20;;;;;;;93.82;32.97;;;;;;;;;;5057025;28;20149;-70
2023/01/26 00:30:46;;;;;;;105.90;33.63;;;;;;;;;;5048220;28;20063;-72
2023/01/26 00:33:13;;;;;;;89.75;31.23;;;;;;;;;;5080678;28;20598;-72
2023/01/26 00:35:43;;;;;;;95.72;32.90;;;;;;;;;;5081908;28;20063;-70
2023/01/26 00:38:12;;;;;;;98.53;33.30;;;;;;;;;;5071065;28;20131;-73
2023/01/26 00:40:39;;;;;;;80.45;30.65;;;;;;;;;;5079416;28;20048;-71
2023/01/26 00:43:05;;;;;;;81.80;30.00;;;;;;;;;;5081841;28;20426;-73
2023/01/26 00:45:33;;;;;;;90.75;31.17;;;;;;;;;;5074372;28;20104;-71
2023/01/26 00:47:59;;;;;;;100.60;32.08;;;;;;;;;;5081237;28;20049;-73
2023/01/26 00:50:26;;;;;;;88.05;32.03;;;;;;;;;;5054689;28;20069;-72
2023/01/26 00:52:52;;;;;;;77.43;29.27;;;;;;;;;;5064074;28;20111;-73
2023/01/26 00:55:19;;;;;;;85.68;30.50;;;;;;;;;;5077920;28;20079;-73
2023/01/26 00:57:45;;;;;;;78.90;28.92;;;;;;;;;;5063141;28;20061;-73
2023/01/26 01:00:15;;;;;;;71.45;28.20;;;;;;;;;;5083278;28;20049;-73
2023/01/26 01:02:42;;;;;;;77.53;27.35;;;;;;;;;;5081529;28;20076;-69
2023/01/26 01:05:09;;;;;;;82.22;30.85;;;;;;;;;;5064296;28;20388;-71
2023/01/26 01:07:35;;;;;;;81.53;30.90;;;;;;;;;;5078446;28;20049;-72
2023/01/26 01:10:01;;;;;;;79.25;27.67;;;;;;;;;;5080661;28;20110;-72
2023/01/26 01:12:27;;;;;;;81.85;27.05;;;;;;;;;;5061883;28;20053;-73
2023/01/26 01:14:54;;;;;;;72.30;26.75;;;;;;;;;;5047862;28;20049;-72
2023/01/26 01:17:20;;;;;;;71.40;26.23;;;;;;;;;;5084868;28;20106;-73
2023/01/26 01:19:46;;;;;;;74.43;27.30;;;;;;;;;;5084118;28;20518;-72
2023/01/26 01:22:13;;;;;;;80.03;29.35;;;;;;;;;;5085772;28;20164;-73
2023/01/26 01:24:39;;;;;;;65.72;24.55;;;;;;;;;;5076126;28;20514;-71
2023/01/26 01:27:05;;;;;;;65.47;26.25;;;;;;;;;;5066805;28;20051;-70
2023/01/26 01:29:32;;;;;;;63.83;24.13;;;;;;;;;;5082922;28;20087;-71
2023/01/26 01:31:58;;;;;;;61.45;24.65;;;;;;;;;;5070731;28;20053;-68
2023/01/26 01:34:24;;;;;;;77.13;25.58;;;;;;;;;;5074431;28;20045;-68
2023/01/26 01:36:51;;;;;;;63.90;24.60;;;;;;;;;;5083636;28;20476;-70
2023/01/26 01:39:17;;;;;;;65.60;25.75;;;;;;;;;;5082414;28;20072;-68
2023/01/26 01:41:44;;;;;;;71.18;26.10;;;;;;;;;;5084151;28;20790;-71
2023/01/26 01:44:20;;;;;;;72.68;24.90;;;;;;;;;;5078274;28;20079;-69
2023/01/26 01:46:52;;;;;;;65.82;24.13;;;;;;;;;;5056060;28;20052;-72
2023/01/26 01:49:22;;;;;;;67.80;24.90;;;;;;;;;;5080367;28;20084;-72
2023/01/26 01:51:51;;;;;;;69.38;25.00;;;;;;;;;;5072997;28;20050;-73
2023/01/26 01:54:20;;;;;;;65.63;24.20;;;;;;;;;;5058153;28;20052;-71
2023/01/26 01:56:49;;;;;;;68.90;25.10;;;;;;;;;;5062027;28;20064;-69
2023/01/26 01:59:19;;;;;;;66.72;23.20;;;;;;;;;;5083726;28;20125;-71
2023/01/26 02:01:47;;;;;;;64.72;24.50;;;;;;;;;;5071669;28;20049;-72
2023/01/26 02:04:13;;;;;;;65.53;26.23;;;;;;;;;;5084225;28;20041;-70
2023/01/26 02:06:42;;;;;;;63.45;25.83;;;;;;;;;;5088218;28;20501;-72
2023/01/26 02:10:17;;;;;;;61.40;23.90;;;;;;;;;;5085723;28;20506;-71
2023/01/26 02:11:55;;;;;;;62.40;24.25;;;;;;;;;;5072834;28;20056;-72
2023/01/26 02:14:22;;;;;;;59.90;23.35;;;;;;;;;;5075076;28;20052;-70
2023/01/26 02:16:48;;;;;;;59.20;22.90;;;;;;;;;;5065425;28;20058;-70
2023/01/26 02:19:19;;;;;;;61.55;25.25;;;;;;;;;;5068783;28;20502;-73
2023/01/26 02:21:47;;;;;;;62.25;23.33;;;;;;;;;;5079573;28;20179;-70
2023/01/26 02:24:16;;;;;;;64.53;23.10;;;;;;;;;;5073155;28;20523;-71
2023/01/26 02:26:43;;;;;;;61.55;24.92;;;;;;;;;;5080222;28;20049;-72
2023/01/26 02:29:09;;;;;;;71.38;27.27;;;;;;;;;;5082740;28;20048;-72
2023/01/26 02:31:36;;;;;;;61.83;24.38;;;;;;;;;;5076926;28;20837;-72
2023/01/26 02:34:03;;;;;;;65.93;26.30;;;;;;;;;;5072514;28;20554;-69
2023/01/26 02:36:31;;;;;;;66.28;23.52;;;;;;;;;;5072562;28;20047;-73
2023/01/26 02:39:00;;;;;;;68.43;26.27;;;;;;;;;;5086537;28;20057;-72
2023/01/26 02:44:12;;;;;;;58.60;23.00;;;;;;;;;;5069842;28;20056;-69
2023/01/26 02:46:38;;;;;;;62.50;23.95;;;;;;;;;;5075697;28;20272;-71
2023/01/26 02:51:50;;;;;;;72.70;26.27;;;;;;;;;;5077133;28;20495;-72
2023/01/26 02:57:03;;;;;;;66.60;26.27;;;;;;;;;;5042512;28;20635;-72
2023/01/26 02:59:29;;;;;;;66.03;24.92;;;;;;;;;;5071599;28;20048;-70
2023/01/26 03:01:56;;;;;;;67.80;24.75;;;;;;;;;;5065684;28;20056;-68
2023/01/26 03:04:23;;;;;;;74.22;26.73;;;;;;;;;;5085465;28;20099;-71
2023/01/26 03:06:49;;;;;;;63.53;23.13;;;;;;;;;;5086062;28;20110;-72
2023/01/26 03:09:16;;;;;;;66.10;25.33;;;;;;;;;;5077097;28;20571;-71
2023/01/26 03:11:42;;;;;;;70.32;25.65;;;;;;;;;;5086291;28;20052;-71
2023/01/26 03:14:09;;;;;;;68.47;25.05;;;;;;;;;;5079268;28;20049;-70
2023/01/26 03:16:35;;;;;;;73.32;23.77;;;;;;;;;;5080770;28;20057;-72
2023/01/26 03:30:04;;;;;;;62.38;24.50;;;;;;;;;;5037584;28;21071;-71
2023/01/26 03:32:30;;;;;;;61.85;22.77;;;;;;;;;;5020758;28;20054;-69
2023/01/26 03:34:56;;;;;;;61.58;22.08;;;;;;;;;;5024854;28;20590;-71
2023/01/26 03:37:23;;;;;;;65.32;24.02;;;;;;;;;;5027085;28;20049;-71
2023/01/26 03:56:31;;;;;;;51.30;18.87;;;;;;;;;;5031031;28;20055;-68
2023/01/26 03:59:06;;;;;;;45.30;18.98;;;;;;;;;;5008601;28;20456;-70
2023/01/26 04:01:38;;;;;;;50.35;20.17;;;;;;;;;;5054888;28;20052;-69
2023/01/26 04:09:41;;;;;;;47.77;19.70;;;;;;;;;;5085340;28;20052;-71
2023/01/26 04:12:09;;;;;;;51.45;20.60;;;;;;;;;;5066074;28;20051;-71
2023/01/26 04:22:50;;;;;;;53.35;21.05;;;;;;;;;;5053598;28;20634;-69
2023/01/26 04:25:18;;;;;;;51.88;20.70;;;;;;;;;;5071607;28;20049;-70
2023/01/26 04:27:44;;;;;;;53.92;21.08;;;;;;;;;;5084132;28;20973;-71
2023/01/26 04:30:12;;;;;;;52.35;20.25;;;;;;;;;;5065739;28;20054;-71
2023/01/26 04:32:39;;;;;;;60.17;22.42;;;;;;;;;;5081681;28;20056;-71
2023/01/26 04:35:05;;;;;;;53.47;20.45;;;;;;;;;;5076131;28;20064;-68
2023/01/26 04:37:32;;;;;;;61.10;23.38;;;;;;;;;;5064607;28;20107;-68
2023/01/26 04:39:58;;;;;;;65.00;23.88;;;;;;;;;;5072966;28;20049;-71
2023/01/26 04:42:25;;;;;;;50.05;20.25;;;;;;;;;;5072773;28;20052;-70
2023/01/26 04:44:51;;;;;;;54.10;22.83;;;;;;;;;;5083711;28;20066;-71
2023/01/26 04:47:18;;;;;;;55.40;20.75;;;;;;;;;;5080235;28;20056;-70
2023/01/26 04:49:45;;;;;;;54.60;20.58;;;;;;;;;;5082530;28;20113;-71
2023/01/26 04:52:11;;;;;;;59.13;21.30;;;;;;;;;;5085807;28;20056;-70
2023/01/26 04:54:38;;;;;;;58.60;20.80;;;;;;;;;;5083636;28;20048;-70
2023/01/26 04:57:04;;;;;;;60.17;23.60;;;;;;;;;;5080146;28;20057;-71
2023/01/26 04:59:31;;;;;;;63.70;22.00;;;;;;;;;;5066689;28;20064;-71
2023/01/26 05:01:57;;;;;;;63.47;22.98;;;;;;;;;;5064970;28;20177;-71
2023/01/26 05:04:23;;;;;;;58.65;22.35;;;;;;;;;;5073689;28;20049;-71
2023/01/26 05:06:50;;;;;;;59.17;21.73;;;;;;;;;;5071841;28;20140;-71
2023/01/26 05:09:16;;;;;;;59.33;22.55;;;;;;;;;;5075775;28;20059;-71
2023/01/26 05:11:43;;;;;;;58.83;21.55;;;;;;;;;;5083907;28;20052;-71
2023/01/26 05:14:09;;;;;;;60.45;23.48;;;;;;;;;;5080664;28;20503;-71
2023/01/26 05:16:35;;;;;;;53.70;23.17;;;;;;;;;;5063212;28;20079;-72
2023/01/26 05:19:02;;;;;;;58.15;20.42;;;;;;;;;;5071595;28;20131;-71
2023/01/26 05:21:28;;;;;;;59.80;21.42;;;;;;;;;;5083498;28;20518;-70
2023/01/26 05:23:54;;;;;;;48.72;20.17;;;;;;;;;;5081212;28;20103;-67
2023/01/26 05:26:21;;;;;;;55.42;20.38;;;;;;;;;;5086067;28;20044;-71
2023/01/26 05:28:47;;;;;;;54.03;19.75;;;;;;;;;;5073088;28;20550;-71
2023/01/26 05:31:13;;;;;;;57.60;18.88;;;;;;;;;;5063772;28;20049;-70
2023/01/26 05:33:40;;;;;;;52.58;19.73;;;;;;;;;;5068858;28;20103;-70
2023/01/26 05:36:06;;;;;;;57.97;21.23;;;;;;;;;;5082561;28;20063;-68
2023/01/26 05:38:33;;;;;;;54.40;20.08;;;;;;;;;;5060788;28;20057;-71
2023/01/26 05:40:59;;;;;;;60.30;20.52;;;;;;;;;;5044799;28;20053;-71
2023/01/26 05:43:25;;;;;;;52.78;20.20;;;;;;;;;;5046499;28;20537;-70
2023/01/26 05:45:52;;;;;;;46.95;20.38;;;;;;;;;;5064175;28;20056;-70
2023/01/26 05:48:18;;;;;;;54.13;20.40;;;;;;;;;;5063360;28;20076;-70
2023/01/26 05:50:45;;;;;;;57.70;19.88;;;;;;;;;;5064665;28;20585;-70
2023/01/26 05:53:11;;;;;;;50.65;19.73;;;;;;;;;;5064598;28;20048;-69
2023/01/26 05:55:37;;;;;;;59.25;22.17;;;;;;;;;;5063903;28;20053;-70
2023/01/26 05:58:03;;;;;;;48.97;20.70;;;;;;;;;;5061314;28;20046;-69
2023/01/26 06:00:30;;;;;;;61.50;23.95;;;;;;;;;;5064600;28;20364;-68
2023/01/26 06:02:56;;;;;;;58.40;20.90;;;;;;;;;;5069778;28;20044;-70
2023/01/26 06:05:22;;;;;;;58.83;21.85;;;;;;;;;;5081258;28;20099;-71
2023/01/26 06:07:49;;;;;;;63.50;24.17;;;;;;;;;;5057860;28;20061;-70
2023/01/26 06:10:15;;;;;;;62.28;21.42;;;;;;;;;;5044230;28;20100;-70
2023/01/26 06:12:41;;;;;;;61.70;20.98;;;;;;;;;;5044718;28;20958;-71
2023/01/26 06:15:08;;;;;;;60.75;21.83;;;;;;;;;;5044601;28;20042;-69
2023/01/26 06:17:35;;;;;;;62.88;21.77;;;;;;;;;;5065454;28;20044;-70
2023/01/26 06:20:01;;;;;;;57.47;21.40;;;;;;;;;;5080655;28;20092;-70
2023/01/26 06:22:27;;;;;;;63.25;21.40;;;;;;;;;;5081678;28;20057;-69
2023/01/26 06:24:54;;;;;;;55.65;21.27;;;;;;;;;;5084619;28;20500;-71
2023/01/26 06:27:20;;;;;;;56.75;20.65;;;;;;;;;;5066219;28;20049;-69
2023/01/26 06:29:46;;;;;;;58.10;21.52;;;;;;;;;;5069521;28;20061;-69
2023/01/26 06:32:13;;;;;;;53.03;20.25;;;;;;;;;;5044682;28;20499;-70
2023/01/26 06:34:40;;;;;;;59.47;23.10;;;;;;;;;;5070302;28;20056;-70
2023/01/26 06:37:06;;;;;;;50.47;19.25;;;;;;;;;;5071038;28;20648;-71
2023/01/26 06:39:33;;;;;;;64.47;22.63;;;;;;;;;;5053331;28;20053;-71
2023/01/26 06:41:59;;;;;;;58.90;22.23;;;;;;;;;;5048559;28;20522;-72
2023/01/26 06:44:25;;;;;;;53.97;20.65;;;;;;;;;;5047528;28;20400;-69
2023/01/26 06:46:52;;;;;;;52.60;21.58;;;;;;;;;;5054386;28;20041;-70
2023/01/26 06:49:18;;;;;;;60.00;21.83;;;;;;;;;;5065223;28;20046;-71
2023/01/26 06:51:46;;;;;;;60.17;22.55;;;;;;;;;;5058598;28;20049;-70
2023/01/26 06:54:13;;;;;;;55.70;21.13;;;;;;;;;;5060135;28;20158;-70
2023/01/26 06:56:40;;;;;;;54.65;21.30;;;;;;;;;;5064441;28;20075;-69
2023/01/26 06:59:08;;;;;;;59.17;21.13;;;;;;;;;;5065103;28;20053;-69
2023/01/26 07:01:43;;;;;;;58.05;20.88;;;;;;;;;;5049552;28;20046;-68
2023/01/26 07:04:09;;;;;;;55.75;20.30;;;;;;;;;;5059997;28;20068;-71
2023/01/26 07:06:36;;;;;;;52.83;19.73;;;;;;;;;;5065335;28;20127;-70
2023/01/26 07:09:03;;;;;;;56.97;20.27;;;;;;;;;;5074678;28;20515;-71
2023/01/26 07:11:31;;;;;;;68.03;24.13;;;;;;;;;;5063296;28;20056;-71
2023/01/26 07:13:58;;;;;;;63.22;22.05;;;;;;;;;;5053771;28;20136;-71
2023/01/26 07:16:24;;;;;;;64.70;21.90;;;;;;;;;;5042638;28;20045;-68
2023/01/26 07:18:52;;;;;;;56.58;20.58;;;;;;;;;;5049736;28;20140;-69
2023/01/26 07:21:18;;;;;;;64.32;20.05;;;;;;;;;;5061094;28;20052;-70
2023/01/26 07:23:45;;;;;;;65.30;20.65;;;;;;;;;;5052401;28;20140;-69
2023/01/26 07:26:12;;;;;;;69.82;21.00;;;;;;;;;;5084220;28;20528;-70
2023/01/26 07:28:39;;;;;;;76.72;21.33;;;;;;;;;;5072730;28;20055;-67
2023/01/26 07:31:06;;;;;;;67.45;22.45;;;;;;;;;;5081437;28;20635;-67
2023/01/26 07:33:33;;;;;;;75.90;22.40;;;;;;;;;;5058043;28;20056;-68
2023/01/26 07:36:00;;;;;;;68.13;21.77;;;;;;;;;;5042894;28;20080;-70
2023/01/26 07:38:30;;;;;;;82.07;23.58;;;;;;;;;;5074211;28;20812;-70
2023/01/26 07:40:56;;;;;;;68.22;22.52;;;;;;;;;;5063147;28;20045;-69
2023/01/26 07:43:22;;;;;;;104.28;25.83;;;;;;;;;;5062402;28;20515;-67
2023/01/26 07:45:50;;;;;;;65.97;22.10;;;;;;;;;;5062512;28;20063;-70
2023/01/26 07:48:17;;;;;;;75.85;23.20;;;;;;;;;;5054804;28;20080;-67
2023/01/26 07:50:44;;;;;;;98.10;24.23;;;;;;;;;;5061317;28;20670;-70
2023/01/26 07:53:14;;;;;;;88.85;23.10;;;;;;;;;;5064827;28;20601;-70
2023/01/26 07:55:42;;;;;;;75.10;21.38;;;;;;;;;;5072038;28;20515;-70
2023/01/26 07:58:11;;;;;;;76.32;23.17;;;;;;;;;;5075935;28;20049;-70
2023/01/26 08:00:38;;;;;;;66.53;22.08;;;;;;;;;;5062260;28;20045;-71
2023/01/26 08:03:05;;;;;;;75.78;20.65;;;;;;;;;;5070742;28;20059;-70
2023/01/26 08:05:32;;;;;;;71.75;23.63;;;;;;;;;;5070164;28;20048;-69
2023/01/26 08:07:59;;;;;;;76.65;21.30;;;;;;;;;;5066560;28;20115;-70
2023/01/26 08:10:26;;;;;;;70.07;21.02;;;;;;;;;;5062624;28;20056;-70
2023/01/26 08:12:52;;;;;;;70.68;21.75;;;;;;;;;;5062938;28;20634;-71
2023/01/26 08:15:18;;;;;;;63.90;19.98;;;;;;;;;;5061905;28;20049;-70
2023/01/26 08:17:45;;;;;;;70.97;21.20;;;;;;;;;;5062111;28;20781;-71
2023/01/26 08:20:12;;;;;;;64.82;20.98;;;;;;;;;;5060612;28;20064;-70
2023/01/26 08:22:39;;;;;;;65.75;21.60;;;;;;;;;;5064187;28;20050;-71
2023/01/26 08:25:06;;;;;;;78.22;21.67;;;;;;;;;;5074299;28;20052;-71
2023/01/26 08:27:32;;;;;;;71.60;20.73;;;;;;;;;;5074138;28;20098;-71
2023/01/26 08:29:59;;;;;;;69.40;22.90;;;;;;;;;;5073954;28;20087;-71
2023/01/26 08:32:27;;;;;;;68.32;21.08;;;;;;;;;;5079827;28;20053;-68
2023/01/26 08:34:53;;;;;;;76.82;20.55;;;;;;;;;;5059569;28;20531;-70
2023/01/26 08:37:20;;;;;;;68.15;20.75;;;;;;;;;;5060174;28;20049;-67
2023/01/26 08:39:46;;;;;;;62.40;20.50;;;;;;;;;;5062879;28;20059;-69
2023/01/26 08:42:13;;;;;;;62.38;19.02;;;;;;;;;;5066071;28;20641;-71
2023/01/26 08:44:39;;;;;;;62.75;22.17;;;;;;;;;;5067009;28;20037;-70
2023/01/26 08:47:05;;;;;;;56.30;20.15;;;;;;;;;;5077161;28;20498;-70
2023/01/26 08:49:32;;;;;;;69.55;21.48;;;;;;;;;;5065662;28;20099;-70
2023/01/26 08:51:59;;;;;;;56.63;17.50;;;;;;;;;;5062021;28;20554;-71
2023/01/26 08:54:25;;;;;;;66.88;19.15;;;;;;;;;;5062167;28;20107;-67
2023/01/26 08:56:53;;;;;;;58.50;19.33;;;;;;;;;;5061968;28;20048;-71
2023/01/26 08:59:19;;;;;;;65.22;21.35;;;;;;;;;;5061245;28;20041;-68
2023/01/26 09:01:47;;;;;;;57.40;19.73;;;;;;;;;;5057299;28;20549;-71
2023/01/26 09:04:16;;;;;;;57.95;18.02;;;;;;;;;;5060646;28;20130;-71
2023/01/26 09:06:43;;;;;;;67.55;20.67;;;;;;;;;;5059623;28;20045;-70
2023/01/26 09:09:12;;;;;;;72.05;20.65;;;;;;;;;;5061001;28;20057;-71
2023/01/26 09:11:39;;;;;;;67.32;18.48;;;;;;;;;;5079935;28;20052;-73
2023/01/26 09:14:05;;;;;;;64.32;19.00;;;;;;;;;;5061755;28;20126;-67
2023/01/26 09:16:31;;;;;;;62.78;17.92;;;;;;;;;;5062104;28;20139;-66
2023/01/26 09:18:58;;;;;;;55.80;17.35;;;;;;;;;;5058029;28;20475;-69
2023/01/26 09:21:24;;;;;;;63.03;17.85;;;;;;;;;;5072149;28;20481;-68
2023/01/26 09:23:50;;;;;;;65.22;17.92;;;;;;;;;;5066505;28;20076;-67
2023/01/26 09:26:17;;;;;;;63.85;16.40;;;;;;;;;;5059107;28;20054;-68
2023/01/26 09:28:43;;;;;;;60.90;16.05;;;;;;;;;;5060595;28;20049;-69
2023/01/26 09:31:10;;;;;;;64.93;14.90;;;;;;;;;;5051430;28;20641;-68
2023/01/26 09:33:37;;;;;;;67.45;13.38;;;;;;;;;;5054549;28;20063;-68
2023/01/26 09:36:04;;;;;;;49.40;12.50;;;;;;;;;;5063434;28;20049;-71
2023/01/26 09:38:30;;;;;;;49.08;11.05;;;;;;;;;;5066045;28;20069;-71
2023/01/26 09:41:04;;;;;;;49.53;10.88;;;;;;;;;;5060412;28;20068;-70
2023/01/26 09:43:44;;;;;;;45.92;9.57;;;;;;;;;;5062024;28;20049;-71
2023/01/26 09:46:23;;;;;;;46.58;7.50;;;;;;;;;;5080196;28;20151;-71
2023/01/26 09:49:04;;;;;;;30.02;5.95;;;;;;;;;;5065045;28;20131;-70
2023/01/26 09:51:46;;;;;;;37.95;6.70;;;;;;;;;;5063974;28;20080;-72
2023/01/26 09:54:14;;;;;;;41.63;5.72;;;;;;;;;;5061382;28;20091;-70
2023/01/26 09:56:41;;;;;;;29.30;5.30;;;;;;;;;;5059996;28;20644;-70
2023/01/26 09:59:40;;;;;;;35.20;3.92;;;;;;;;;;5066374;28;20076;-71
2023/01/26 10:02:09;;;;;;;34.35;4.63;;;;;;;;;;5007871;28;20054;-71
2023/01/26 10:04:39;;;;;;;30.67;4.25;;;;;;;;;;5017284;28;20524;-71
2023/01/26 10:07:08;;;;;;;28.65;4.72;;;;;;;;;;5017280;28;20084;-72
2023/01/26 10:09:36;;;;;;;34.20;4.63;;;;;;;;;;5016958;28;20090;-72
2023/01/26 10:12:22;;;;;;;28.77;3.58;;;;;;;;;;5016533;28;20501;-70
2023/01/26 10:14:54;;;;;;;23.52;4.15;;;;;;;;;;5029672;28;20046;-71
2023/01/26 10:17:26;;;;;;;29.05;4.15;;;;;;;;;;5020092;28;20049;-72
2023/01/26 10:20:05;;;;;;;31.85;3.85;;;;;;;;;;5041139;28;20693;-70
2023/01/26 10:22:31;;;;;;;23.30;3.42;;;;;;;;;;5041649;28;20053;-71
2023/01/26 10:24:58;;;;;;;34.30;3.22;;;;;;;;;;5036358;28;20444;-71
2023/01/26 10:27:26;;;;;;;20.30;5.28;;;;;;;;;;5020660;28;20046;-69
2023/01/26 10:29:52;;;;;;;29.17;3.72;;;;;;;;;;5011788;28;20540;-73
2023/01/26 10:32:19;;;;;;;23.83;4.90;;;;;;;;;;5019170;28;20519;-72
2023/01/26 10:34:47;;;;;;;25.73;3.25;;;;;;;;;;5019330;28;20050;-72
2023/01/26 10:37:25;;;;;;;26.05;3.80;;;;;;;;;;5030844;28;20052;-71
2023/01/26 10:40:00;;;;;;;29.63;3.78;;;;;;;;;;5061840;28;20646;-68
2023/01/26 10:42:27;;;;;;;43.73;4.03;;;;;;;;;;5062399;28;20049;-72
2023/01/26 10:44:53;;;;;;;21.75;3.38;;;;;;;;;;5064577;28;20055;-72
2023/01/26 10:47:21;;;;;;;22.85;4.43;;;;;;;;;;5073633;28;20049;-72
2023/01/26 10:49:47;;;;;;;36.17;5.75;;;;;;;;;;5078944;28;20052;-69
2023/01/26 10:52:20;;;;;;;26.25;4.20;;;;;;;;;;5080136;28;20047;-72
2023/01/26 10:54:47;;;;;;;26.02;4.38;;;;;;;;;;5065417;28;20056;-77
2023/01/26 10:57:26;;;;;;;32.00;4.35;;;;;;;;;;5062960;28;20531;-72
2023/01/26 10:59:57;;;;;;;30.85;4.85;;;;;;;;;;5061400;28;20056;-73
2023/01/26 11:02:27;;;;;;;31.95;4.07;;;;;;;;;;5065975;28;20053;-73
2023/01/26 11:05:13;;;;;;;17.73;2.58;;;;;;;;;;5064163;28;20154;-72
2023/01/26 11:07:44;;;;;;;18.17;3.20;;;;;;;;;;5063772;28;20604;-72
2023/01/26 11:10:18;;;;;;;20.77;3.10;;;;;;;;;;5065210;28;20056;-71
2023/01/26 11:12:45;;;;;;;18.40;2.90;;;;;;;;;;5072537;28;20049;-71
2023/01/26 11:15:15;;;;;;;25.60;3.38;;;;;;;;;;5066871;28;20056;-69
2023/01/26 11:17:45;;;;;;;16.52;2.92;;;;;;;;;;5075731;28;20056;-72
2023/01/26 11:20:20;;;;;;;30.73;4.22;;;;;;;;;;5066775;28;20060;-73
2023/01/26 11:22:59;;;;;;;26.45;4.40;;;;;;;;;;5062479;28;20138;-69
2023/01/26 11:25:31;;;;;;;20.23;3.08;;;;;;;;;;5062728;28;20049;-69
2023/01/26 11:27:59;;;;;;;24.10;3.28;;;;;;;;;;5064111;28;20466;-70
2023/01/26 11:30:47;;;;;;;18.33;3.42;;;;;;;;;;5062683;28;20061;-69
2023/01/26 11:33:17;;;;;;;17.40;2.50;;;;;;;;;;5062074;28;20045;-73
2023/01/26 11:35:47;;;;;;;14.77;2.95;;;;;;;;;;5062644;28;20062;-72
2023/01/26 11:38:35;;;;;;;17.25;2.30;;;;;;;;;;5062944;28;20048;-72
2023/01/26 11:41:01;;;;;;;32.33;3.63;;;;;;;;;;5062594;28;20144;-70
2023/01/26 11:43:27;;;;;;;15.32;2.78;;;;;;;;;;5061210;28;20057;-69
2023/01/26 11:46:04;;;;;;;16.45;3.17;;;;;;;;;;5063273;28;20045;-72
2023/01/26 11:48:33;;;;;;;26.45;3.85;;;;;;;;;;5063562;28;20236;-71
2023/01/26 11:51:08;;;;;;;19.10;2.90;;;;;;;;;;5062210;28;20056;-72
2023/01/26 11:53:42;;;;;;;14.23;2.47;;;;;;;;;;5062540;28;20053;-70
2023/01/26 11:56:24;;;;;;;20.95;3.80;;;;;;;;;;5065807;28;20126;-71
2023/01/26 11:59:11;;;;;;;17.40;3.60;;;;;;;;;;5062029;28;20116;-72
2023/01/26 12:01:42;;;;;;;15.38;2.97;;;;;;;;;;5059633;28;20680;-72
2023/01/26 12:04:13;;;;;;;19.08;2.05;;;;;;;;;;5061862;28;20053;-71
2023/01/26 12:06:41;;;;;;;14.38;2.17;;;;;;;;;;5062300;28;20136;-69
2023/01/26 12:09:20;;;;;;;21.98;4.15;;;;;;;;;;5069833;28;20521;-72
2023/01/26 12:12:02;;;;;;;13.68;2.80;;;;;;;;;;5061442;28;20052;-71
2023/01/26 12:14:49;;;;;;;31.38;2.97;;;;;;;;;;5058931;28;20044;-70
2023/01/26 12:17:15;;;;;;;20.98;3.72;;;;;;;;;;5058885;28;20447;-71
2023/01/26 12:19:44;;;;;;;17.23;2.22;;;;;;;;;;5059935;28;21014;-72
2023/01/26 12:22:13;;;;;;;17.23;2.92;;;;;;;;;;5061548;28;20099;-71
2023/01/26 12:24:46;;;;;;;17.42;2.90;;;;;;;;;;5064019;28;20505;-72
2023/01/26 12:27:36;;;;;;;21.63;3.17;;;;;;;;;;5061510;28;20120;-72
2023/01/26 12:30:23;;;;;;;13.75;2.83;;;;;;;;;;5060756;28;20076;-70
2023/01/26 12:32:50;;;;;;;16.63;2.88;;;;;;;;;;5055447;28;20052;-72
2023/01/26 12:35:22;;;;;;;19.20;3.08;;;;;;;;;;5064083;28;20048;-71
2023/01/26 12:37:57;;;;;;;25.13;4.30;;;;;;;;;;5070570;28;20080;-71
2023/01/26 12:40:45;;;;;;;20.33;2.85;;;;;;;;;;5060196;28;20052;-73
2023/01/26 12:43:23;;;;;;;21.65;3.88;;;;;;;;;;5066984;28;20063;-72
2023/01/26 12:45:52;;;;;;;25.50;4.60;;;;;;;;;;5064117;28;20441;-72
2023/01/26 12:48:21;;;;;;;21.90;2.72;;;;;;;;;;5069054;28;20577;-73
2023/01/26 12:50:53;;;;;;;15.30;2.40;;;;;;;;;;5067102;28;20049;-69
2023/01/26 12:53:19;;;;;;;12.95;1.88;;;;;;;;;;5059186;28;20144;-71
2023/01/26 12:56:04;;;;;;;24.27;2.50;;;;;;;;;;5062682;28;20566;-70
2023/01/26 12:58:33;;;;;;;9.88;1.85;;;;;;;;;;5061731;28;20105;-72
2023/01/26 13:01:05;;;;;;;9.40;2.00;;;;;;;;;;5066825;28;20496;-71
2023/01/26 13:03:37;;;;;;;17.42;2.63;;;;;;;;;;5068118;28;20063;-69
2023/01/26 13:06:13;;;;;;;14.38;1.60;;;;;;;;;;5079721;28;20048;-69
2023/01/26 13:08:47;;;;;;;13.73;2.65;;;;;;;;;;5061642;28;20538;-70
2023/01/26 13:11:34;;;;;;;10.50;2.10;;;;;;;;;;5064965;28;20053;-70
2023/01/26 13:14:00;;;;;;;8.80;2.38;;;;;;;;;;5067798;28;20117;-72
2023/01/26 13:16:33;;;;;;;16.38;2.65;;;;;;;;;;5070559;28;20075;-72
2023/01/26 13:19:00;;;;;;;16.60;2.70;;;;;;;;;;5061003;28;20564;-71
2023/01/26 13:21:30;;;;;;;17.80;2.97;;;;;;;;;;5061563;28;20076;-71
2023/01/26 13:23:56;;;;;;;6.70;1.92;;;;;;;;;;5068332;28;20045;-71
2023/01/26 13:26:28;;;;;;;14.75;2.03;;;;;;;;;;5070394;28;20099;-73
2023/01/26 13:29:15;;;;;;;18.45;3.33;;;;;;;;;;5067806;28;20674;-74
2023/01/26 13:31:41;;;;;;;14.18;2.60;;;;;;;;;;5065025;28;20045;-71
2023/01/26 13:34:08;;;;;;;16.17;3.10;;;;;;;;;;5060334;28;20060;-74
2023/01/26 13:36:35;;;;;;;15.55;2.40;;;;;;;;;;5064184;28;20049;-71
2023/01/26 13:39:12;;;;;;;14.10;3.10;;;;;;;;;;5059493;28;20180;-74
2023/01/26 13:41:46;;;;;;;23.15;3.00;;;;;;;;;;5061368;28;20067;-73
2023/01/26 13:44:16;;;;;;;16.27;2.63;;;;;;;;;;5055444;28;20049;-75
2023/01/26 13:46:44;;;;;;;11.43;2.28;;;;;;;;;;5062995;28;20134;-71
2023/01/26 13:49:35;;;;;;;12.10;1.95;;;;;;;;;;5068388;28;20064;-74
2023/01/26 13:52:02;;;;;;;13.25;3.03;;;;;;;;;;5070716;28;20052;-73
2023/01/26 13:54:29;;;;;;;17.13;2.10;;;;;;;;;;5061004;28;20191;-72
2023/01/26 13:56:59;;;;;;;13.13;2.75;;;;;;;;;;5063336;28;20061;-71
2023/01/26 13:59:26;;;;;;;11.35;2.10;;;;;;;;;;5066215;28;20568;-73
2023/01/26 14:01:53;;;;;;;7.05;2.45;;;;;;;;;;5062716;28;20053;-74
2023/01/26 14:04:21;;;;;;;22.40;2.60;;;;;;;;;;5064886;28;20053;-74
2023/01/26 14:06:53;;;;;;;13.75;3.10;;;;;;;;;;5079208;28;20056;-72
2023/01/26 14:09:19;;;;;;;19.02;2.80;;;;;;;;;;5056465;28;20053;-73
2023/01/26 14:11:52;;;;;;;17.08;2.40;;;;;;;;;;5068389;28;20139;-72
2023/01/26 14:14:22;;;;;;;18.73;2.25;;;;;;;;;;5055451;28;20491;-74
2023/01/26 14:16:48;;;;;;;9.13;2.03;;;;;;;;;;5059336;28;20442;-75
2023/01/26 14:19:16;;;;;;;11.80;2.25;;;;;;;;;;5065173;28;20606;-68
2023/01/26 14:21:49;;;;;;;13.07;3.08;;;;;;;;;;5063249;28;20053;-68
2023/01/26 14:24:16;;;;;;;12.55;2.08;;;;;;;;;;5061195;28;20052;-71
2023/01/26 14:26:42;;;;;;;16.00;1.98;;;;;;;;;;5070401;28;20131;-73
2023/01/26 14:29:10;;;;;;;12.38;2.03;;;;;;;;;;5077580;28;20049;-73
2023/01/26 14:31:36;;;;;;;16.60;2.70;;;;;;;;;;5062587;28;20057;-73
2023/01/26 14:34:07;;;;;;;11.52;2.20;;;;;;;;;;5064016;28;20475;-73
2023/01/26 14:36:38;;;;;;;12.63;1.80;;;;;;;;;;5060692;28;20538;-72
2023/01/26 14:39:17;;;;;;;26.75;3.45;;;;;;;;;;5060661;28;20052;-69
2023/01/26 14:41:44;;;;;;;14.52;2.80;;;;;;;;;;5058392;28;20447;-73
2023/01/26 14:44:10;;;;;;;9.10;2.40;;;;;;;;;;5062111;28;20057;-73
2023/01/26 14:46:42;;;;;;;9.10;2.00;;;;;;;;;;5061866;28;20516;-70
2023/01/26 14:49:14;;;;;;;16.08;2.03;;;;;;;;;;5071447;28;20224;-73
2023/01/26 14:51:43;;;;;;;15.25;2.00;;;;;;;;;;5068794;28;20044;-72
2023/01/26 14:54:14;;;;;;;9.35;1.63;;;;;;;;;;5062935;28;20059;-72
2023/01/26 14:56:44;;;;;;;16.85;3.00;;;;;;;;;;5076304;28;20063;-70
2023/01/26 14:59:22;;;;;;;11.40;2.20;;;;;;;;;;5072127;28;20052;-74
2023/01/26 15:01:48;;;;;;;10.10;2.03;;;;;;;;;;5057395;28;20072;-72
2023/01/26 15:04:23;;;;;;;15.18;2.15;;;;;;;;;;5059841;28;20096;-70
2023/01/26 15:06:49;;;;;;;14.85;1.95;;;;;;;;;;5058900;28;20060;-70
2023/01/26 15:09:25;;;;;;;9.07;1.42;;;;;;;;;;5064890;28;20061;-68
2023/01/26 15:14:47;;;;;;;11.43;1.77;;;;;;;;;;5067493;28;20656;-69
2023/01/26 15:17:32;;;;;;;8.43;1.30;;;;;;;;;;5063852;28;20053;-71
2023/01/26 15:19:59;;;;;;;13.82;1.77;;;;;;;;;;5064002;28;20103;-73
2023/01/26 15:22:26;;;;;;;8.25;2.30;;;;;;;;;;5071235;28;20074;-72
2023/01/26 15:24:59;;;;;;;10.57;1.90;;;;;;;;;;5076594;28;20140;-71